createdAt,value
2022-08-28T00:00:14.163Z,7.72
2022-08-28T00:02:41.296Z,6.40
2022-08-28T00:05:11.537Z,5.85
2022-08-28T00:07:38.293Z,5.60
2022-08-28T00:10:06.130Z,6.07
2022-08-28T00:12:32.550Z,5.65
2022-08-28T00:15:00.188Z,5.40
2022-08-28T00:17:26.689Z,5.60
2022-08-28T00:19:53.150Z,5.43
2022-08-28T00:22:19.662Z,5.53
2022-08-28T00:24:46.146Z,4.57
2022-08-28T00:27:31.135Z,4.90
2022-08-28T00:29:57.600Z,4.50
2022-08-28T00:32:27.025Z,4.47
2022-08-28T00:34:53.602Z,4.28
2022-08-28T00:37:20.052Z,4.60
2022-08-28T00:39:51.192Z,4.88
2022-08-28T00:42:18.340Z,5.00
2022-08-28T00:44:47.794Z,5.05
2022-08-28T00:47:14.352Z,4.90
2022-08-28T00:49:48.724Z,5.13
2022-08-28T00:52:16.086Z,5.10
2022-08-28T00:54:59.369Z,4.97
2022-08-28T00:57:49.696Z,4.78
2022-08-28T01:02:44.819Z,5.20
2022-08-28T01:05:13.060Z,5.57
2022-08-28T01:07:40.558Z,6.10
2022-08-28T01:10:12.691Z,6.38
2022-08-28T01:12:39.203Z,5.70
2022-08-28T01:15:11.780Z,5.90
2022-08-28T01:17:43.810Z,5.80
2022-08-28T01:20:16.126Z,7.03
2022-08-28T01:22:50.303Z,6.90
2022-08-28T01:25:21.155Z,7.50
2022-08-28T01:27:47.800Z,7.35
2022-08-28T01:30:18.507Z,8.30
2022-08-28T01:32:47.872Z,7.38
2022-08-28T01:35:18.091Z,8.30
2022-08-28T01:37:45.723Z,7.97
2022-08-28T01:40:17.693Z,7.70
2022-08-28T01:42:44.645Z,8.02
2022-08-28T01:45:14.793Z,7.50
2022-08-28T01:47:42.826Z,8.52
2022-08-28T01:50:11.759Z,8.02
2022-08-28T01:52:38.989Z,7.75
2022-08-28T01:55:06.665Z,7.93
2022-08-28T01:57:33.926Z,8.68
2022-08-28T02:00:00.417Z,9.15
2022-08-28T02:02:26.858Z,8.57
2022-08-28T02:04:53.794Z,8.48
2022-08-28T02:07:20.388Z,8.93
2022-08-28T02:09:46.838Z,8.90
2022-08-28T02:12:13.275Z,8.18
2022-08-28T02:14:39.767Z,9.32
2022-08-28T02:17:06.223Z,8.70
2022-08-28T02:19:32.679Z,8.80
2022-08-28T02:21:59.287Z,8.30
2022-08-28T02:24:25.797Z,8.68
2022-08-28T02:26:52.335Z,8.50
2022-08-28T02:29:18.939Z,9.60
2022-08-28T02:31:45.649Z,8.38
2022-08-28T02:34:12.090Z,8.07
2022-08-28T02:36:42.565Z,7.50
2022-08-28T02:39:09.572Z,7.15
2022-08-28T02:41:36.095Z,7.10
2022-08-28T02:44:02.685Z,6.80
2022-08-28T02:46:29.556Z,6.50
2022-08-28T02:48:56.451Z,6.70
2022-08-28T02:51:24.224Z,6.72
2022-08-28T02:53:52.170Z,6.13
2022-08-28T02:56:19.021Z,6.00
2022-08-28T02:58:45.463Z,6.10
2022-08-28T03:01:13.311Z,6.30
2022-08-28T03:03:41.485Z,6.43
2022-08-28T03:06:09.391Z,6.25
2022-08-28T03:08:35.870Z,6.18
2022-08-28T03:11:02.313Z,6.43
2022-08-28T03:13:30.047Z,6.15
2022-08-28T03:15:57.238Z,5.93
2022-08-28T03:18:25.705Z,6.63
2022-08-28T03:20:53.700Z,5.50
2022-08-28T03:23:26.294Z,5.93
2022-08-28T03:26:24.057Z,5.55
2022-08-28T03:28:52.738Z,5.30
2022-08-28T03:31:23.925Z,5.57
2022-08-28T03:33:51.216Z,5.57
2022-08-28T03:36:21.499Z,5.25
2022-08-28T03:38:49.359Z,5.05
2022-08-28T03:41:18.995Z,5.45
2022-08-28T03:43:45.779Z,5.40
2022-08-28T03:46:15.234Z,4.68
2022-08-28T03:48:42.672Z,5.03
2022-08-28T03:51:14.840Z,5.32
2022-08-28T03:53:42.422Z,5.10
2022-08-28T03:56:12.560Z,5.90
2022-08-28T03:58:40.747Z,4.68
2022-08-28T04:01:08.097Z,4.50
2022-08-28T04:03:34.906Z,4.38
2022-08-28T04:06:01.692Z,4.45
2022-08-28T04:08:29.357Z,4.22
2022-08-28T04:10:56.151Z,5.07
2022-08-28T04:13:22.975Z,3.85
2022-08-28T04:16:00.992Z,3.95
2022-08-28T04:18:28.125Z,4.80
2022-08-28T04:21:03.367Z,4.38
2022-08-28T04:23:30.139Z,4.68
2022-08-28T04:25:56.672Z,3.85
2022-08-28T04:28:24.830Z,4.03
2022-08-28T04:30:54.503Z,3.75
2022-08-28T04:33:22.930Z,4.50
2022-08-28T04:35:49.490Z,3.85
2022-08-28T04:38:16.266Z,4.07
2022-08-28T04:40:43.151Z,4.13
2022-08-28T04:43:10.346Z,3.90
2022-08-28T04:45:41.381Z,3.88
2022-08-28T04:50:42.362Z,3.65
2022-08-28T04:53:09.242Z,4.25
2022-08-28T04:55:54.304Z,4.50
2022-08-28T04:58:23.635Z,3.35
2022-08-28T05:00:52.816Z,3.28
2022-08-28T05:03:20.135Z,4.15
2022-08-28T05:05:51.036Z,3.45
2022-08-28T05:08:20.364Z,3.40
2022-08-28T05:10:48.472Z,3.58
2022-08-28T05:13:16.480Z,3.20
2022-08-28T05:15:45.860Z,4.10
2022-08-28T05:18:14.202Z,3.50
2022-08-28T05:20:42.802Z,3.50
2022-08-28T05:23:10.094Z,3.28
2022-08-28T05:25:39.505Z,3.92
2022-08-28T05:28:11.427Z,4.18
2022-08-28T05:30:40.202Z,3.50
2022-08-28T05:33:07.958Z,3.40
2022-08-28T05:35:39.921Z,3.88
2022-08-28T05:38:06.924Z,3.40
2022-08-28T05:40:34.354Z,4.30
2022-08-28T05:43:00.862Z,3.55
2022-08-28T05:45:27.303Z,3.53
2022-08-28T05:47:54.067Z,3.55
2022-08-28T05:50:20.570Z,3.58
2022-08-28T05:52:47.460Z,3.65
2022-08-28T05:55:14.320Z,3.60
2022-08-28T05:57:41.380Z,4.25
2022-08-28T06:00:13.696Z,4.60
2022-08-28T06:02:42.068Z,4.00
2022-08-28T06:05:09.403Z,4.47
2022-08-28T06:10:07.403Z,3.85
2022-08-28T06:12:37.333Z,4.72
2022-08-28T06:15:04.090Z,4.88
2022-08-28T06:17:31.095Z,4.38
2022-08-28T06:19:57.539Z,4.60
2022-08-28T06:22:24.071Z,4.50
2022-08-28T06:24:50.674Z,4.88
2022-08-28T06:27:17.159Z,4.40
2022-08-28T06:29:44.717Z,4.50
2022-08-28T06:32:11.255Z,3.88
2022-08-28T06:34:37.782Z,5.30
2022-08-28T06:37:04.233Z,4.68
2022-08-28T06:39:30.857Z,4.57
2022-08-28T06:41:57.327Z,4.50
2022-08-28T06:44:23.838Z,5.03
2022-08-28T06:46:52.917Z,4.45
2022-08-28T06:49:19.990Z,4.15
2022-08-28T06:51:46.560Z,4.35
2022-08-28T06:54:17.295Z,5.43
2022-08-28T06:56:48.311Z,4.28
2022-08-28T06:59:14.933Z,4.03
2022-08-28T07:01:41.492Z,4.72
2022-08-28T07:04:10.317Z,4.22
2022-08-28T07:06:39.707Z,4.35
2022-08-28T07:09:08.622Z,4.07
2022-08-28T07:11:36.673Z,4.35
2022-08-28T07:14:04.467Z,3.97
2022-08-28T07:16:34.206Z,4.25
2022-08-28T07:19:04.280Z,3.80
2022-08-28T07:21:31.772Z,4.50
2022-08-28T07:23:58.360Z,4.28
2022-08-28T07:26:26.080Z,3.92
2022-08-28T07:29:09.364Z,3.90
2022-08-28T07:31:39.372Z,4.55
2022-08-28T07:34:05.826Z,4.20
2022-08-28T07:36:32.319Z,4.15
2022-08-28T07:38:59.651Z,4.45
2022-08-28T07:41:28.843Z,3.83
2022-08-28T07:44:13.745Z,4.88
2022-08-28T07:46:41.158Z,4.25
2022-08-28T07:49:08.751Z,4.47
2022-08-28T07:51:35.695Z,4.70
2022-08-28T07:54:04.200Z,4.10
2022-08-28T07:56:31.642Z,4.30
2022-08-28T07:58:58.405Z,4.50
2022-08-28T08:01:27.145Z,5.10
2022-08-28T08:03:55.902Z,4.35
2022-08-28T08:06:31.021Z,4.47
2022-08-28T08:09:03.323Z,4.40
2022-08-28T08:11:32.475Z,5.30
2022-08-28T08:14:05.456Z,4.53
2022-08-28T08:16:35.122Z,5.05
2022-08-28T08:19:01.872Z,5.28
2022-08-28T08:21:30.411Z,5.03
2022-08-28T08:23:57.339Z,5.25
2022-08-28T08:26:26.032Z,5.38
2022-08-28T08:28:52.504Z,5.10
2022-08-28T08:31:26.225Z,5.45
2022-08-28T08:33:55.962Z,4.57
2022-08-28T08:36:24.682Z,5.72
2022-08-28T08:38:59.882Z,5.35
2022-08-28T08:41:48.401Z,5.05
2022-08-28T08:44:33.527Z,4.97
2022-08-28T08:47:22.569Z,4.78
2022-08-28T08:49:54.539Z,5.63
2022-08-28T08:52:45.563Z,4.85
2022-08-28T08:55:24.949Z,5.00
2022-08-28T08:58:00.730Z,4.90
2022-08-28T09:00:28.517Z,5.32
2022-08-28T09:03:04.542Z,4.70
2022-08-28T09:06:00.503Z,5.60
2022-08-28T09:08:47.471Z,5.40
2022-08-28T09:11:29.183Z,5.15
2022-08-28T09:14:20.506Z,5.80
2022-08-28T09:16:47.519Z,5.57
2022-08-28T09:19:19.215Z,4.68
2022-08-28T09:21:47.214Z,5.07
2022-08-28T09:24:26.478Z,5.75
2022-08-28T09:26:56.465Z,5.80
2022-08-28T09:29:36.730Z,6.05
2022-08-28T09:32:23.419Z,5.30
2022-08-28T09:35:23.952Z,5.53
2022-08-28T09:37:50.542Z,6.15
2022-08-28T09:40:22.405Z,5.13
2022-08-28T09:43:27.729Z,6.05
2022-08-28T09:46:16.521Z,5.95
2022-08-28T09:48:44.818Z,5.60
2022-08-28T09:51:28.592Z,5.55
2022-08-28T09:53:54.976Z,5.50
2022-08-28T09:56:35.583Z,5.70
2022-08-28T09:59:06.674Z,5.70
2022-08-28T10:01:53.526Z,5.93
2022-08-28T10:04:45.390Z,6.13
2022-08-28T10:07:18.459Z,6.00
2022-08-28T10:09:57.138Z,5.72
2022-08-28T10:12:45.836Z,4.93
2022-08-28T10:15:22.012Z,5.45
2022-08-28T10:18:14.063Z,6.15
2022-08-28T10:20:55.093Z,6.88
2022-08-28T10:23:45.723Z,6.97
2022-08-28T10:26:28.787Z,6.15
2022-08-28T10:29:41.588Z,5.85
2022-08-28T10:32:46.794Z,6.32
2022-08-28T10:35:25.412Z,6.20
2022-08-28T10:37:57.659Z,5.80
2022-08-28T10:40:29.422Z,5.88
2022-08-28T10:43:03.924Z,5.05
2022-08-28T10:45:32.762Z,6.00
2022-08-28T10:48:07.296Z,5.85
2022-08-28T10:50:47.879Z,6.13
2022-08-28T10:53:19.348Z,6.13
2022-08-28T10:55:54.228Z,6.35
2022-08-28T10:58:25.560Z,5.80
2022-08-28T11:00:56.846Z,6.25
2022-08-28T11:03:35.433Z,6.57
2022-08-28T11:06:11.831Z,7.00
2022-08-28T11:08:39.731Z,6.63
2022-08-28T11:11:13.591Z,6.25
2022-08-28T11:13:49.148Z,6.32
2022-08-28T11:16:22.563Z,7.15
2022-08-28T11:19:06.268Z,6.75
2022-08-28T11:21:44.424Z,6.63
2022-08-28T11:24:26.329Z,7.40
2022-08-28T11:27:18.464Z,6.65
2022-08-28T11:30:28.652Z,6.50
2022-08-28T11:32:59.378Z,7.28
2022-08-28T11:35:42.999Z,7.05
2022-08-28T11:38:10.614Z,6.28
2022-08-28T11:40:52.518Z,6.68
2022-08-28T11:43:21.705Z,6.78
2022-08-28T11:45:48.311Z,7.18
2022-08-28T11:48:33.694Z,6.18
2022-08-28T11:51:20.100Z,6.63
2022-08-28T11:53:59.765Z,7.20
2022-08-28T11:56:44.511Z,6.20
2022-08-28T11:59:42.336Z,6.47
2022-08-28T12:02:33.749Z,6.53
2022-08-28T12:05:00.270Z,6.57
2022-08-28T12:07:34.575Z,6.70
2022-08-28T12:10:05.026Z,6.85
2022-08-28T12:12:53.377Z,6.82
2022-08-28T12:15:39.363Z,6.43
2022-08-28T12:18:11.920Z,6.45
2022-08-28T12:20:58.535Z,7.07
2022-08-28T12:23:31.550Z,5.97
2022-08-28T12:26:22.553Z,5.80
2022-08-28T12:28:58.646Z,5.63
2022-08-28T12:32:02.626Z,5.63
2022-08-28T12:34:50.134Z,5.50
2022-08-28T12:37:43.974Z,5.78
2022-08-28T12:40:40.127Z,9.52
2022-08-28T12:43:15.555Z,6.80
2022-08-28T12:45:58.033Z,9.25
2022-08-28T12:48:29.132Z,6.70
2022-08-28T12:51:03.301Z,6.78
2022-08-28T12:53:38.950Z,7.43
2022-08-28T12:56:07.516Z,6.53
2022-08-28T12:58:36.745Z,6.75
2022-08-28T13:01:09.158Z,6.00
2022-08-28T13:03:44.702Z,5.97
2022-08-28T13:06:11.174Z,5.60
2022-08-28T13:08:38.711Z,5.45
2022-08-28T13:11:05.811Z,5.00
2022-08-28T13:13:37.791Z,6.88
2022-08-28T13:16:12.771Z,10.40
2022-08-28T13:18:52.060Z,5.32
2022-08-28T13:21:33.971Z,4.47
2022-08-28T13:24:23.920Z,4.85
2022-08-28T13:27:00.910Z,4.38
2022-08-28T13:29:27.510Z,4.93
2022-08-28T13:32:08.464Z,4.97
2022-08-28T13:34:39.014Z,4.32
2022-08-28T13:37:50.507Z,4.10
2022-08-28T13:43:15.742Z,3.88
2022-08-28T13:45:45.153Z,3.88
2022-08-28T13:48:14.044Z,3.95
2022-08-28T13:50:46.554Z,3.63
2022-08-28T13:53:15.400Z,3.70
2022-08-28T13:55:42.972Z,3.83
2022-08-28T13:58:10.812Z,3.40
2022-08-28T14:00:41.625Z,3.28
2022-08-28T14:03:26.711Z,3.25
2022-08-28T14:05:54.243Z,3.35
2022-08-28T14:08:21.909Z,4.00
2022-08-28T14:10:48.801Z,3.70
2022-08-28T14:13:15.884Z,3.15
2022-08-28T14:15:42.309Z,3.80
2022-08-28T14:18:08.839Z,3.47
2022-08-28T14:20:35.609Z,3.10
2022-08-28T14:23:02.117Z,3.30
2022-08-28T14:25:28.609Z,3.28
2022-08-28T14:27:55.886Z,3.00
2022-08-28T14:30:23.396Z,3.13
2022-08-28T14:32:52.181Z,3.20
2022-08-28T14:35:18.735Z,3.30
2022-08-28T14:37:45.601Z,3.10
2022-08-28T14:40:12.990Z,3.20
2022-08-28T14:42:41.775Z,2.90
2022-08-28T14:45:08.610Z,3.45
2022-08-28T14:47:35.057Z,3.40
2022-08-28T14:50:01.555Z,2.58
2022-08-28T14:52:28.331Z,3.47
2022-08-28T14:54:55.793Z,2.92
2022-08-28T14:57:22.448Z,3.20
2022-08-28T14:59:49.408Z,2.80
2022-08-28T15:02:15.859Z,3.00
2022-08-28T15:04:42.428Z,3.35
2022-08-28T15:07:10.819Z,2.95
2022-08-28T15:09:40.537Z,3.35
2022-08-28T15:12:07.285Z,2.65
2022-08-28T15:14:34.570Z,2.85
2022-08-28T15:17:01.228Z,3.05
2022-08-28T15:19:28.166Z,2.78
2022-08-28T15:21:59.011Z,2.80
2022-08-28T15:24:29.929Z,2.90
2022-08-28T15:26:57.848Z,3.20
2022-08-28T15:29:24.340Z,2.72
2022-08-28T15:31:51.318Z,2.95
2022-08-28T15:34:21.686Z,3.13
2022-08-28T15:36:55.085Z,3.00
2022-08-28T15:39:43.212Z,2.92
2022-08-28T15:42:13.109Z,2.78
2022-08-28T15:44:39.593Z,2.67
2022-08-28T15:47:06.836Z,2.95
2022-08-28T15:49:43.449Z,2.78
2022-08-28T15:52:18.539Z,3.30
2022-08-28T15:54:45.037Z,4.90
2022-08-28T15:57:11.607Z,2.70
2022-08-28T15:59:49.177Z,2.80
2022-08-28T16:02:17.795Z,3.50
2022-08-28T16:04:44.292Z,2.60
2022-08-28T16:07:11.779Z,2.63
2022-08-28T16:09:38.302Z,3.35
2022-08-28T16:12:05.059Z,2.88
2022-08-28T16:14:32.941Z,3.42
2022-08-28T16:16:59.784Z,2.70
2022-08-28T16:19:32.684Z,3.25
2022-08-28T16:21:59.129Z,2.75
2022-08-28T16:24:25.973Z,3.10
2022-08-28T16:26:52.494Z,3.25
2022-08-28T16:29:18.954Z,2.75
2022-08-28T16:31:47.868Z,3.08
2022-08-28T16:34:14.903Z,2.85
2022-08-28T16:36:48.467Z,3.05
2022-08-28T16:39:15.198Z,2.97
2022-08-28T16:41:43.388Z,2.88
2022-08-28T16:44:09.872Z,3.20
2022-08-28T16:46:36.400Z,3.00
2022-08-28T16:49:03.731Z,2.65
2022-08-28T16:51:30.207Z,3.28
2022-08-28T16:53:57.642Z,2.35
2022-08-28T16:56:24.476Z,3.08
2022-08-28T16:58:53.107Z,2.72
2022-08-28T17:01:23.865Z,2.45
2022-08-28T17:03:50.517Z,2.63
2022-08-28T17:06:23.489Z,2.58
2022-08-28T17:08:55.937Z,2.30
2022-08-28T17:11:24.454Z,2.90
2022-08-28T17:13:50.928Z,2.97
2022-08-28T17:16:18.462Z,3.03
2022-08-28T17:18:47.496Z,2.03
2022-08-28T17:21:37.447Z,2.85
2022-08-28T17:24:04.265Z,2.95
2022-08-28T17:26:30.708Z,2.60
2022-08-28T17:28:57.171Z,2.55
2022-08-28T17:31:23.726Z,2.90
2022-08-28T17:33:50.253Z,2.63
2022-08-28T17:36:32.414Z,3.00
2022-08-28T17:39:04.141Z,2.25
2022-08-28T17:41:31.975Z,2.83
2022-08-28T17:43:59.388Z,2.58
2022-08-28T17:46:26.142Z,2.63
2022-08-28T17:48:55.387Z,3.13
2022-08-28T17:51:33.826Z,2.83
2022-08-28T17:54:10.816Z,3.30
2022-08-28T17:56:37.953Z,3.28
2022-08-28T17:59:04.972Z,6.97
2022-08-28T18:01:31.573Z,17.73
2022-08-28T18:03:58.430Z,3.97
2022-08-28T18:06:24.979Z,3.05
2022-08-28T18:08:52.065Z,3.60
2022-08-28T18:11:19.537Z,3.40
2022-08-28T18:13:46.432Z,2.63
2022-08-28T18:16:13.029Z,2.50
2022-08-28T18:18:39.623Z,2.53
2022-08-28T18:21:06.150Z,3.03
2022-08-28T18:23:32.700Z,2.47
2022-08-28T18:25:59.175Z,2.40
2022-08-28T18:28:26.609Z,2.90
2022-08-28T18:30:53.906Z,2.90
2022-08-28T18:33:22.417Z,2.92
2022-08-28T18:35:50.871Z,2.75
2022-08-28T18:38:18.315Z,2.70
2022-08-28T18:40:45.991Z,2.78
2022-08-28T18:43:12.714Z,2.65
2022-08-28T18:45:40.586Z,2.85
2022-08-28T18:48:11.064Z,3.15
2022-08-28T18:50:37.937Z,2.85
2022-08-28T18:53:05.384Z,2.45
2022-08-28T18:55:32.916Z,2.85
2022-08-28T18:58:01.279Z,2.40
2022-08-28T19:00:27.978Z,2.75
2022-08-28T19:02:54.907Z,2.63
2022-08-28T19:05:21.547Z,2.65
2022-08-28T19:07:48.472Z,2.60
2022-08-28T19:10:32.621Z,2.40
2022-08-28T19:13:01.383Z,2.55
2022-08-28T19:15:28.687Z,2.85
2022-08-28T19:17:55.463Z,2.42
2022-08-28T19:20:22.055Z,2.85
2022-08-28T19:22:48.725Z,2.83
2022-08-28T19:25:22.478Z,2.60
2022-08-28T19:27:56.366Z,2.47
2022-08-28T19:30:25.952Z,2.60
2022-08-28T19:32:52.679Z,2.95
2022-08-28T19:35:19.433Z,2.88
2022-08-28T19:37:46.371Z,2.33
2022-08-28T19:40:13.480Z,2.75
2022-08-28T19:42:40.384Z,2.83
2022-08-28T19:45:10.208Z,2.42
2022-08-28T19:47:36.679Z,2.72
2022-08-28T19:50:04.867Z,2.88
2022-08-28T19:52:31.343Z,2.70
2022-08-28T19:55:00.917Z,3.17
2022-08-28T19:57:27.422Z,2.70
2022-08-28T19:59:54.918Z,3.35
2022-08-28T20:02:22.808Z,3.15
2022-08-28T20:04:49.295Z,2.20
2022-08-28T20:07:16.312Z,2.50
2022-08-28T20:09:42.747Z,2.65
2022-08-28T20:12:09.208Z,2.80
2022-08-28T20:14:38.970Z,2.72
2022-08-28T20:17:05.458Z,3.05
2022-08-28T20:19:33.495Z,2.50
2022-08-28T20:21:59.990Z,2.90
2022-08-28T20:24:26.654Z,3.08
2022-08-28T20:26:53.398Z,3.25
2022-08-28T20:29:21.718Z,2.60
2022-08-28T20:31:49.671Z,2.92
2022-08-28T20:34:19.163Z,2.97
2022-08-28T20:36:46.213Z,2.80
2022-08-28T20:39:12.773Z,3.03
2022-08-28T20:41:40.452Z,3.00
2022-08-28T20:44:09.470Z,2.88
2022-08-28T20:46:40.766Z,2.90
2022-08-28T20:49:12.947Z,2.92
2022-08-28T20:54:32.796Z,2.53
2022-08-28T20:57:03.599Z,3.53
2022-08-28T20:59:39.426Z,2.63
2022-08-28T21:02:11.838Z,2.60
2022-08-28T21:04:39.820Z,2.70
2022-08-28T21:07:08.397Z,3.40
2022-08-28T21:10:01.454Z,2.90
2022-08-28T21:12:22.395Z,2.88
2022-08-28T21:14:52.312Z,3.58
2022-08-28T21:17:24.371Z,3.00
2022-08-28T21:19:55.825Z,3.20
2022-08-28T21:22:22.303Z,3.00
2022-08-28T21:24:48.902Z,3.22
2022-08-28T21:27:15.432Z,3.00
2022-08-28T21:29:45.024Z,3.40
2022-08-28T21:32:11.562Z,3.33
2022-08-28T21:34:38.014Z,3.08
2022-08-28T21:37:04.464Z,3.50
2022-08-28T21:39:30.985Z,3.40
2022-08-28T21:41:57.705Z,3.50
2022-08-28T21:44:25.006Z,2.80
2022-08-28T21:46:51.493Z,3.83
2022-08-28T21:49:18.089Z,3.50
2022-08-28T21:51:44.736Z,3.38
2022-08-28T21:54:12.857Z,3.35
2022-08-28T21:56:39.372Z,3.35
2022-08-28T21:59:06.309Z,3.58
2022-08-28T22:01:32.854Z,3.78
2022-08-28T22:03:59.351Z,3.35
2022-08-28T22:06:26.429Z,4.00
2022-08-28T22:08:53.944Z,3.45
2022-08-28T22:11:25.252Z,3.60
2022-08-28T22:13:55.385Z,3.10
2022-08-28T22:16:23.010Z,4.15
2022-08-28T22:18:50.448Z,3.35
2022-08-28T22:21:38.682Z,3.40
2022-08-28T22:24:05.363Z,3.40
2022-08-28T22:26:32.946Z,3.45
2022-08-28T22:29:00.549Z,3.55
2022-08-28T22:31:27.260Z,3.50
2022-08-28T22:33:53.817Z,3.58
2022-08-28T22:36:21.454Z,3.70
2022-08-28T22:38:53.338Z,3.42
2022-08-28T22:41:20.568Z,3.63
2022-08-28T22:43:48.293Z,3.75
2022-08-28T22:46:18.684Z,3.58
2022-08-28T22:48:46.116Z,3.58
2022-08-28T22:51:15.675Z,4.03
2022-08-28T22:53:43.230Z,3.63
2022-08-28T22:56:11.338Z,3.45
2022-08-28T22:58:38.804Z,3.72
2022-08-28T23:01:13.047Z,4.00
2022-08-28T23:03:39.970Z,4.15
2022-08-28T23:06:07.857Z,3.38
2022-08-28T23:08:34.917Z,5.68
2022-08-28T23:11:01.573Z,3.55
2022-08-28T23:13:29.431Z,4.13
2022-08-28T23:15:55.967Z,3.50
2022-08-28T23:18:23.662Z,3.90
2022-08-28T23:20:51.432Z,3.63
2022-08-28T23:23:19.015Z,4.03
2022-08-28T23:25:45.873Z,3.58
2022-08-28T23:28:13.365Z,3.70
2022-08-28T23:30:43.993Z,3.83
2022-08-28T23:33:21.193Z,4.00
2022-08-28T23:35:51.535Z,3.88
2022-08-28T23:38:19.509Z,4.40
2022-08-28T23:40:47.983Z,3.97
2022-08-28T23:43:15.011Z,3.63
2022-08-28T23:45:43.509Z,3.75
2022-08-28T23:48:10.353Z,3.95
2022-08-28T23:50:39.627Z,4.32
2022-08-28T23:53:08.366Z,3.50
2022-08-28T23:55:36.126Z,3.42
2022-08-28T23:58:03.646Z,3.75
